sensor_id;sensor_type;location;lat;lon;timestamp;pressure;altitude;pressure_sealevel;temperature;humidity
77263;BME280;66373;52.334;4.806;2023-02-15T00:01:56;102851.53;;;17.15;52.13
77263;BME280;66373;52.334;4.806;2023-02-15T00:04:25;102849.78;;;17.15;52.10
77263;BME280;66373;52.334;4.806;2023-02-15T00:07:13;102841.09;;;17.13;51.98
77263;BME280;66373;52.334;4.806;2023-02-15T00:09:40;102837.66;;;17.14;52.00
77263;BME280;66373;52.334;4.806;2023-02-15T00:12:07;102837.66;;;17.14;51.81
77263;BME280;66373;52.334;4.806;2023-02-15T00:14:36;102830.72;;;17.13;51.85
77263;BME280;66373;52.334;4.806;2023-02-15T00:17:03;102826.34;;;17.11;51.71
77263;BME280;66373;52.334;4.806;2023-02-15T00:19:30;102833.28;;;17.12;51.81
77263;BME280;66373;52.334;4.806;2023-02-15T00:21:57;102822.00;;;17.11;51.86
77263;BME280;66373;52.334;4.806;2023-02-15T00:24:24;102822.00;;;17.11;51.79
77263;BME280;66373;52.334;4.806;2023-02-15T00:26:52;102815.06;;;17.10;51.62
77263;BME280;66373;52.334;4.806;2023-02-15T00:29:19;102813.31;;;17.09;51.58
77263;BME280;66373;52.334;4.806;2023-02-15T00:31:47;102812.38;;;17.06;51.72
77263;BME280;66373;52.334;4.806;2023-02-15T00:34:16;102809.81;;;17.07;51.69
77263;BME280;66373;52.334;4.806;2023-02-15T00:36:44;102801.13;;;17.05;51.78
77263;BME280;66373;52.334;4.806;2023-02-15T00:39:14;102803.72;;;17.07;51.50
77263;BME280;66373;52.334;4.806;2023-02-15T00:41:40;102802.84;;;17.06;51.49
77263;BME280;66373;52.334;4.806;2023-02-15T00:44:08;102805.47;;;17.06;51.55
77263;BME280;66373;52.334;4.806;2023-02-15T00:46:35;102799.38;;;17.04;51.45
77263;BME280;66373;52.334;4.806;2023-02-15T00:49:03;102798.50;;;17.04;51.53
77263;BME280;66373;52.334;4.806;2023-02-15T00:51:31;102799.38;;;17.04;51.42
77263;BME280;66373;52.334;4.806;2023-02-15T00:53:58;102799.38;;;17.04;51.34
77263;BME280;66373;52.334;4.806;2023-02-15T00:56:25;102795.88;;;17.02;51.45
77263;BME280;66373;52.334;4.806;2023-02-15T00:58:53;102794.13;;;17.01;51.34
77263;BME280;66373;52.334;4.806;2023-02-15T01:01:21;102794.13;;;17.01;51.37
77263;BME280;66373;52.334;4.806;2023-02-15T01:03:50;102799.31;;;17.01;51.34
77263;BME280;66373;52.334;4.806;2023-02-15T01:06:18;102788.88;;;16.98;51.41
77263;BME280;66373;52.334;4.806;2023-02-15T01:08:46;102796.69;;;17.00;51.27
77263;BME280;66373;52.334;4.806;2023-02-15T01:11:16;102792.34;;;16.99;51.21
77263;BME280;66373;52.334;4.806;2023-02-15T01:13:47;102791.47;;;16.98;51.19
77263;BME280;66373;52.334;4.806;2023-02-15T01:16:14;102783.66;;;16.98;51.18
77263;BME280;66373;52.334;4.806;2023-02-15T01:18:42;102778.44;;;16.96;50.94
77263;BME280;66373;52.334;4.806;2023-02-15T01:21:10;102783.66;;;16.96;51.22
77263;BME280;66373;52.334;4.806;2023-02-15T01:23:40;102775.75;;;16.90;51.09
77263;BME280;66373;52.334;4.806;2023-02-15T01:26:07;102776.69;;;16.94;51.11
77263;BME280;66373;52.334;4.806;2023-02-15T01:28:35;102767.09;;;16.88;51.02
77263;BME280;66373;52.334;4.806;2023-02-15T01:31:05;102772.31;;;16.93;51.14
77263;BME280;66373;52.334;4.806;2023-02-15T01:33:32;102774.94;;;16.93;51.14
77263;BME280;66373;52.334;4.806;2023-02-15T01:35:59;102765.38;;;16.92;51.06
77263;BME280;66373;52.334;4.806;2023-02-15T01:38:26;102760.16;;;16.90;51.03
77263;BME280;66373;52.334;4.806;2023-02-15T01:40:54;102766.22;;;16.91;50.95
77263;BME280;66373;52.334;4.806;2023-02-15T01:43:45;102754.97;;;16.90;50.89
77263;BME280;66373;52.334;4.806;2023-02-15T01:46:13;102754.97;;;16.89;50.85
77263;BME280;66373;52.334;4.806;2023-02-15T01:48:43;102755.81;;;16.88;50.96
77263;BME280;66373;52.334;4.806;2023-02-15T01:51:11;102751.50;;;16.88;50.88
77263;BME280;66373;52.334;4.806;2023-02-15T01:53:42;102751.47;;;16.87;50.55
77263;BME280;66373;52.334;4.806;2023-02-15T01:56:15;102752.31;;;16.86;50.86
77263;BME280;66373;52.334;4.806;2023-02-15T01:58:49;102756.66;;;16.85;50.92
77263;BME280;66373;52.334;4.806;2023-02-15T02:01:18;102755.78;;;16.85;50.71
77263;BME280;66373;52.334;4.806;2023-02-15T02:03:53;102748.81;;;16.84;50.81
77263;BME280;66373;52.334;4.806;2023-02-15T02:06:23;102739.25;;;16.81;50.69
77263;BME280;66373;52.334;4.806;2023-02-15T02:08:51;102747.06;;;16.83;50.65
77263;BME280;66373;52.334;4.806;2023-02-15T02:11:20;102753.16;;;16.83;50.59
77263;BME280;66373;52.334;4.806;2023-02-15T02:13:48;102743.56;;;16.81;50.50
77263;BME280;66373;52.334;4.806;2023-02-15T02:16:20;102734.03;;;16.80;50.66
77263;BME280;66373;52.334;4.806;2023-02-15T02:18:59;102740.13;;;16.82;50.74
77263;BME280;66373;52.334;4.806;2023-02-15T02:24:36;102734.88;;;16.79;50.61
77263;BME280;66373;52.334;4.806;2023-02-15T02:27:19;102726.13;;;16.74;50.49
77263;BME280;66373;52.334;4.806;2023-02-15T02:33:22;102721.84;;;16.76;50.55
77263;BME280;66373;52.334;4.806;2023-02-15T02:35:57;102719.22;;;16.74;50.49
77263;BME280;66373;52.334;4.806;2023-02-15T02:38:33;102724.44;;;16.76;50.43
77263;BME280;66373;52.334;4.806;2023-02-15T02:41:14;102717.50;;;16.75;50.60
77263;BME280;66373;52.334;4.806;2023-02-15T02:43:48;102714.91;;;16.75;50.47
77263;BME280;66373;52.334;4.806;2023-02-15T02:46:22;102708.81;;;16.73;50.66
77263;BME280;66373;52.334;4.806;2023-02-15T02:48:52;102702.72;;;16.72;50.41
77263;BME280;66373;52.334;4.806;2023-02-15T02:51:19;102690.63;;;16.73;50.45
77263;BME280;66373;52.334;4.806;2023-02-15T02:53:50;102682.78;;;16.71;50.58
77263;BME280;66373;52.334;4.806;2023-02-15T02:56:21;102684.53;;;16.71;50.41
77263;BME280;66373;52.334;4.806;2023-02-15T02:58:57;102682.78;;;16.70;50.37
77263;BME280;66373;52.334;4.806;2023-02-15T03:01:29;102681.91;;;16.69;50.43
77263;BME280;66373;52.334;4.806;2023-02-15T03:04:03;102675.81;;;16.69;50.30
77263;BME280;66373;52.334;4.806;2023-02-15T03:06:37;102670.63;;;16.69;50.55
77263;BME280;66373;52.334;4.806;2023-02-15T03:09:09;102669.72;;;16.67;50.43
77263;BME280;66373;52.334;4.806;2023-02-15T03:11:42;102667.13;;;16.67;50.50
77263;BME280;66373;52.334;4.806;2023-02-15T03:14:10;102671.47;;;16.66;50.30
77263;BME280;66373;52.334;4.806;2023-02-15T03:16:38;102671.47;;;16.66;50.37
77263;BME280;66373;52.334;4.806;2023-02-15T03:19:09;102673.19;;;16.66;50.41
77263;BME280;66373;52.334;4.806;2023-02-15T03:21:41;102667.09;;;16.63;50.40
77263;BME280;66373;52.334;4.806;2023-02-15T03:24:18;102667.91;;;16.61;50.27
77263;BME280;66373;52.334;4.806;2023-02-15T03:26:50;102671.38;;;16.63;50.06
77263;BME280;66373;52.334;4.806;2023-02-15T03:29:20;102676.56;;;16.63;50.28
77263;BME280;66373;52.334;4.806;2023-02-15T03:31:54;102669.63;;;16.60;50.23
77263;BME280;66373;52.334;4.806;2023-02-15T03:34:24;102665.31;;;16.61;50.12
77263;BME280;66373;52.334;4.806;2023-02-15T03:36:57;102669.63;;;16.60;50.14
77263;BME280;66373;52.334;4.806;2023-02-15T03:39:30;102659.25;;;16.60;50.14
77263;BME280;66373;52.334;4.806;2023-02-15T03:42:04;102657.50;;;16.59;50.10
77263;BME280;66373;52.334;4.806;2023-02-15T03:44:38;102657.50;;;16.59;50.11
77263;BME280;66373;52.334;4.806;2023-02-15T03:47:11;102650.56;;;16.58;50.01
77263;BME280;66373;52.334;4.806;2023-02-15T03:49:45;102647.09;;;16.58;49.94
77263;BME280;66373;52.334;4.806;2023-02-15T03:52:16;102626.16;;;16.49;50.23
77263;BME280;66373;52.334;4.806;2023-02-15T03:54:44;102639.28;;;16.56;50.13
77263;BME280;66373;52.334;4.806;2023-02-15T03:57:15;102634.06;;;16.55;50.06
77263;BME280;66373;52.334;4.806;2023-02-15T04:00:02;102632.31;;;16.55;50.16
77263;BME280;66373;52.334;4.806;2023-02-15T04:03:11;102630.56;;;16.54;49.99
77263;BME280;66373;52.334;4.806;2023-02-15T04:05:41;102628.84;;;16.53;50.11
77263;BME280;66373;52.334;4.806;2023-02-15T04:08:09;102632.28;;;16.52;50.01
77263;BME280;66373;52.334;4.806;2023-02-15T04:10:36;102616.69;;;16.52;49.90
77263;BME280;66373;52.334;4.806;2023-02-15T04:13:17;102619.28;;;16.52;50.08
77263;BME280;66373;52.334;4.806;2023-02-15T04:15:44;102620.16;;;16.51;50.01
77263;BME280;66373;52.334;4.806;2023-02-15T04:18:28;102623.59;;;16.50;49.94
77263;BME280;66373;52.334;4.806;2023-02-15T04:21:14;102624.44;;;16.49;49.93
77263;BME280;66373;52.334;4.806;2023-02-15T04:23:58;102627.03;;;16.49;50.15
77263;BME280;66373;52.334;4.806;2023-02-15T04:26:43;102621.81;;;16.48;50.19
77263;BME280;66373;52.334;4.806;2023-02-15T04:29:09;102613.09;;;16.44;50.09
77263;BME280;66373;52.334;4.806;2023-02-15T04:31:36;102616.63;;;16.48;50.17
77263;BME280;66373;52.334;4.806;2023-02-15T04:34:03;102614.91;;;16.48;50.01
77263;BME280;66373;52.334;4.806;2023-02-15T04:36:31;102608.81;;;16.46;50.24
77263;BME280;66373;52.334;4.806;2023-02-15T04:38:58;102608.81;;;16.46;50.05
77263;BME280;66373;52.334;4.806;2023-02-15T04:41:25;102603.59;;;16.45;50.05
77263;BME280;66373;52.334;4.806;2023-02-15T04:43:51;102601.88;;;16.45;49.99
77263;BME280;66373;52.334;4.806;2023-02-15T04:46:18;102601.84;;;16.44;49.92
77263;BME280;66373;52.334;4.806;2023-02-15T04:48:45;102593.16;;;16.42;49.97
77263;BME280;66373;52.334;4.806;2023-02-15T04:51:12;102600.13;;;16.44;50.50
77263;BME280;66373;52.334;4.806;2023-02-15T04:53:40;102595.78;;;16.43;50.33
77263;BME280;66373;52.334;4.806;2023-02-15T04:56:07;102600.97;;;16.43;50.19
77263;BME280;66373;52.334;4.806;2023-02-15T04:58:34;102600.94;;;16.42;50.03
77263;BME280;66373;52.334;4.806;2023-02-15T05:01:02;102598.34;;;16.42;50.20
77263;BME280;66373;52.334;4.806;2023-02-15T05:03:29;102593.16;;;16.42;50.20
77263;BME280;66373;52.334;4.806;2023-02-15T05:05:56;102594.84;;;16.40;50.15
77263;BME280;66373;52.334;4.806;2023-02-15T05:08:23;102594.88;;;16.41;50.32
77263;BME280;66373;52.334;4.806;2023-02-15T05:10:51;102594.00;;;16.39;50.31
77263;BME280;66373;52.334;4.806;2023-02-15T05:13:18;102587.03;;;16.38;50.11
77263;BME280;66373;52.334;4.806;2023-02-15T05:15:48;102585.31;;;16.36;50.21
77263;BME280;66373;52.334;4.806;2023-02-15T05:18:15;102587.03;;;16.38;50.23
77263;BME280;66373;52.334;4.806;2023-02-15T05:20:42;102587.03;;;16.38;50.12
77263;BME280;66373;52.334;4.806;2023-02-15T05:23:09;102590.50;;;16.37;50.11
77263;BME280;66373;52.334;4.806;2023-02-15T05:25:36;102594.84;;;16.37;50.03
77263;BME280;66373;52.334;4.806;2023-02-15T05:28:25;102588.78;;;16.36;50.21
77263;BME280;66373;52.334;4.806;2023-02-15T05:31:01;102592.22;;;16.35;50.22
77263;BME280;66373;52.334;4.806;2023-02-15T05:33:28;102592.22;;;16.35;50.17
77263;BME280;66373;52.334;4.806;2023-02-15T05:35:55;102590.47;;;16.34;50.20
77263;BME280;66373;52.334;4.806;2023-02-15T05:38:22;102593.94;;;16.33;50.25
77263;BME280;66373;52.334;4.806;2023-02-15T05:40:50;102593.94;;;16.33;50.24
77263;BME280;66373;52.334;4.806;2023-02-15T05:43:17;102587.00;;;16.32;50.25
77263;BME280;66373;52.334;4.806;2023-02-15T05:45:46;102587.88;;;16.33;51.31
77263;BME280;66373;52.334;4.806;2023-02-15T05:48:13;102581.78;;;16.32;51.51
77263;BME280;66373;52.334;4.806;2023-02-15T05:50:39;102580.03;;;16.31;51.55
77263;BME280;66373;52.334;4.806;2023-02-15T05:53:06;102586.13;;;16.33;51.67
77263;BME280;66373;52.334;4.806;2023-02-15T05:55:33;102591.31;;;16.32;51.51
77263;BME280;66373;52.334;4.806;2023-02-15T05:58:00;102583.50;;;16.30;51.31
77263;BME280;66373;52.334;4.806;2023-02-15T06:00:27;102581.75;;;16.29;51.25
77263;BME280;66373;52.334;4.806;2023-02-15T06:02:55;102578.31;;;16.30;51.32
77263;BME280;66373;52.334;4.806;2023-02-15T06:05:22;102571.38;;;16.29;51.18
77263;BME280;66373;52.334;4.806;2023-02-15T06:07:49;102576.56;;;16.29;51.36
77263;BME280;66373;52.334;4.806;2023-02-15T06:10:16;102569.63;;;16.28;51.77
77263;BME280;66373;52.334;4.806;2023-02-15T06:12:43;102569.63;;;16.28;51.88
77263;BME280;66373;52.334;4.806;2023-02-15T06:15:10;102563.50;;;16.24;51.77
77263;BME280;66373;52.334;4.806;2023-02-15T06:17:37;102570.47;;;16.27;52.00
77263;BME280;66373;52.334;4.806;2023-02-15T06:20:06;102567.88;;;16.27;51.79
77263;BME280;66373;52.334;4.806;2023-02-15T06:22:34;102565.28;;;16.27;51.84
77263;BME280;66373;52.334;4.806;2023-02-15T06:25:01;102570.44;;;16.25;51.67
77263;BME280;66373;52.334;4.806;2023-02-15T06:27:28;102565.22;;;16.24;51.72
77263;BME280;66373;52.334;4.806;2023-02-15T06:29:55;102574.75;;;16.25;51.64
77263;BME280;66373;52.334;4.806;2023-02-15T06:32:22;102573.91;;;16.26;51.60
77263;BME280;66373;52.334;4.806;2023-02-15T06:34:49;102567.81;;;16.24;51.46
77263;BME280;66373;52.334;4.806;2023-02-15T06:37:18;102568.69;;;16.24;51.58
77263;BME280;66373;52.334;4.806;2023-02-15T06:39:45;102569.56;;;16.25;51.62
77263;BME280;66373;52.334;4.806;2023-02-15T06:42:11;102568.66;;;16.23;51.60
77263;BME280;66373;52.334;4.806;2023-02-15T06:44:38;102566.94;;;16.23;51.65
77263;BME280;66373;52.334;4.806;2023-02-15T06:47:05;102571.28;;;16.23;51.66
77263;BME280;66373;52.334;4.806;2023-02-15T06:49:32;102575.59;;;16.22;51.55
77263;BME280;66373;52.334;4.806;2023-02-15T06:51:59;102571.28;;;16.23;51.45
77263;BME280;66373;52.334;4.806;2023-02-15T06:54:27;102574.72;;;16.22;51.75
77263;BME280;66373;52.334;4.806;2023-02-15T06:56:53;102572.97;;;16.21;51.43
77263;BME280;66373;52.334;4.806;2023-02-15T06:59:20;102569.53;;;16.22;51.46
77263;BME280;66373;52.334;4.806;2023-02-15T07:01:47;102569.53;;;16.22;51.59
77263;BME280;66373;52.334;4.806;2023-02-15T07:04:14;102563.44;;;16.20;51.77
77263;BME280;66373;52.334;4.806;2023-02-15T07:06:41;102571.22;;;16.20;51.71
77263;BME280;66373;52.334;4.806;2023-02-15T07:09:08;102558.22;;;16.18;51.57
77263;BME280;66373;52.334;4.806;2023-02-15T07:11:37;102561.69;;;16.19;51.50
77263;BME280;66373;52.334;4.806;2023-02-15T07:14:21;102563.41;;;16.18;51.52
77263;BME280;66373;52.334;4.806;2023-02-15T07:16:48;102559.03;;;16.16;51.83
77263;BME280;66373;52.334;4.806;2023-02-15T07:19:15;102562.53;;;16.18;51.84
77263;BME280;66373;52.334;4.806;2023-02-15T07:21:42;102560.78;;;16.17;51.70
77263;BME280;66373;52.334;4.806;2023-02-15T07:24:09;102555.59;;;16.17;51.80
77263;BME280;66373;52.334;4.806;2023-02-15T07:26:37;102555.59;;;16.17;51.79
77263;BME280;66373;52.334;4.806;2023-02-15T07:29:04;102549.53;;;16.16;51.64
77263;BME280;66373;52.334;4.806;2023-02-15T07:31:31;102555.59;;;16.17;51.46
77263;BME280;66373;52.334;4.806;2023-02-15T07:33:58;102548.66;;;16.16;51.35
77263;BME280;66373;52.334;4.806;2023-02-15T07:36:25;102543.47;;;16.16;51.45
77263;BME280;66373;52.334;4.806;2023-02-15T07:38:51;102547.78;;;16.15;51.39
77263;BME280;66373;52.334;4.806;2023-02-15T07:41:18;102543.47;;;16.16;51.62
77263;BME280;66373;52.334;4.806;2023-02-15T07:43:46;102538.28;;;16.16;51.52
77263;BME280;66373;52.334;4.806;2023-02-15T07:46:15;102533.09;;;16.16;51.48
77263;BME280;66373;52.334;4.806;2023-02-15T07:48:43;102506.97;;;16.04;51.58
77263;BME280;66373;52.334;4.806;2023-02-15T07:51:11;102522.69;;;16.16;51.53
77263;BME280;66373;52.334;4.806;2023-02-15T07:53:38;102530.47;;;16.14;51.36
77263;BME280;66373;52.334;4.806;2023-02-15T07:56:07;102521.81;;;16.15;51.39
77263;BME280;66373;52.334;4.806;2023-02-15T07:58:36;102516.59;;;16.14;51.49
77263;BME280;66373;52.334;4.806;2023-02-15T08:01:23;102518.34;;;16.15;51.44
77263;BME280;66373;52.334;4.806;2023-02-15T08:03:50;102510.56;;;16.15;51.66
77263;BME280;66373;52.334;4.806;2023-02-15T08:06:18;102516.59;;;16.14;51.42
77263;BME280;66373;52.334;4.806;2023-02-15T08:08:45;102513.16;;;16.15;51.55
77263;BME280;66373;52.334;4.806;2023-02-15T08:11:17;102505.38;;;16.15;51.66
77263;BME280;66373;52.334;4.806;2023-02-15T08:13:59;102502.78;;;16.15;51.61
77263;BME280;66373;52.334;4.806;2023-02-15T08:16:32;102506.25;;;16.15;51.67
77263;BME280;66373;52.334;4.806;2023-02-15T08:19:01;102502.75;;;16.13;51.78
77263;BME280;66373;52.334;4.806;2023-02-15T08:21:29;102505.38;;;16.15;51.74
77263;BME280;66373;52.334;4.806;2023-02-15T08:23:56;102503.63;;;16.14;51.63
77263;BME280;66373;52.334;4.806;2023-02-15T08:26:24;102501.91;;;16.14;51.56
77263;BME280;66373;52.334;4.806;2023-02-15T08:28:52;102505.38;;;16.15;51.72
77263;BME280;66373;52.334;4.806;2023-02-15T08:31:20;102511.44;;;16.15;51.61
77263;BME280;66373;52.334;4.806;2023-02-15T08:33:49;102507.13;;;16.16;51.51
77263;BME280;66373;52.334;4.806;2023-02-15T08:36:18;102511.44;;;16.15;51.52
77263;BME280;66373;52.334;4.806;2023-02-15T08:38:45;102504.50;;;16.14;51.43
77263;BME280;66373;52.334;4.806;2023-02-15T08:41:14;102507.13;;;16.16;51.50
77263;BME280;66373;52.334;4.806;2023-02-15T08:43:42;102517.50;;;16.16;51.56
77263;BME280;66373;52.334;4.806;2023-02-15T08:46:10;102504.47;;;16.13;51.53
77263;BME280;66373;52.334;4.806;2023-02-15T08:48:37;102514.91;;;16.16;51.44
77263;BME280;66373;52.334;4.806;2023-02-15T08:51:08;102511.47;;;16.17;51.55
77263;BME280;66373;52.334;4.806;2023-02-15T08:53:37;102521.00;;;16.18;51.49
77263;BME280;66373;52.334;4.806;2023-02-15T08:56:05;102521.00;;;16.18;51.46
77263;BME280;66373;52.334;4.806;2023-02-15T08:58:32;102514.94;;;16.17;51.60
77263;BME280;66373;52.334;4.806;2023-02-15T09:01:00;102512.34;;;16.19;51.52
77263;BME280;66373;52.334;4.806;2023-02-15T09:03:28;102503.69;;;16.18;51.58
77263;BME280;66373;52.334;4.806;2023-02-15T09:05:59;102498.44;;;16.14;51.82
77263;BME280;66373;52.334;4.806;2023-02-15T09:08:28;102502.84;;;16.19;51.63
77263;BME280;66373;52.334;4.806;2023-02-15T09:11:08;102499.38;;;16.19;51.37
77263;BME280;66373;52.334;4.806;2023-02-15T09:13:35;102507.16;;;16.19;51.41
77263;BME280;66373;52.334;4.806;2023-02-15T09:16:03;102508.91;;;16.20;51.43
77263;BME280;66373;52.334;4.806;2023-02-15T09:18:32;102522.75;;;16.19;51.45
77263;BME280;66373;52.334;4.806;2023-02-15T09:21:05;102516.69;;;16.20;51.61
77263;BME280;66373;52.334;4.806;2023-02-15T09:23:34;102514.09;;;16.20;51.50
77263;BME280;66373;52.334;4.806;2023-02-15T09:26:05;102516.69;;;16.20;51.42
77263;BME280;66373;52.334;4.806;2023-02-15T09:28:32;102519.28;;;16.20;51.54
77263;BME280;66373;52.334;4.806;2023-02-15T09:31:07;102508.03;;;16.19;51.39
77263;BME280;66373;52.334;4.806;2023-02-15T09:33:35;102507.22;;;16.22;51.40
77263;BME280;66373;52.334;4.806;2023-02-15T09:36:03;102494.22;;;16.22;51.45
77263;BME280;66373;52.334;4.806;2023-02-15T09:38:30;102495.06;;;16.21;51.40
77263;BME280;66373;52.334;4.806;2023-02-15T09:41:08;102499.41;;;16.22;51.60
77263;BME280;66373;52.334;4.806;2023-02-15T09:43:43;102489.88;;;16.21;51.53
77263;BME280;66373;52.334;4.806;2023-02-15T09:46:26;102486.44;;;16.22;51.36
77263;BME280;66373;52.334;4.806;2023-02-15T09:49:02;102490.75;;;16.21;51.30
77263;BME280;66373;52.334;4.806;2023-02-15T09:51:46;102496.81;;;16.22;51.22
77263;BME280;66373;52.334;4.806;2023-02-15T09:54:29;102493.38;;;16.23;51.49
77263;BME280;66373;52.334;4.806;2023-02-15T09:57:05;102493.38;;;16.23;51.40
77263;BME280;66373;52.334;4.806;2023-02-15T09:59:41;102496.00;;;16.24;51.33
77263;BME280;66373;52.334;4.806;2023-02-15T10:02:22;102500.31;;;16.24;51.36
77263;BME280;66373;52.334;4.806;2023-02-15T10:05:01;102508.94;;;16.23;51.44
77263;BME280;66373;52.334;4.806;2023-02-15T10:07:48;102504.63;;;16.23;51.46
77263;BME280;66373;52.334;4.806;2023-02-15T10:10:23;102496.88;;;16.25;51.31
77263;BME280;66373;52.334;4.806;2023-02-15T10:13:00;102488.22;;;16.26;51.25
77263;BME280;66373;52.334;4.806;2023-02-15T10:15:39;102483.03;;;16.26;51.14
77263;BME280;66373;52.334;4.806;2023-02-15T10:18:23;102485.63;;;16.26;51.28
77263;BME280;66373;52.334;4.806;2023-02-15T10:20:56;102488.22;;;16.26;51.28
77263;BME280;66373;52.334;4.806;2023-02-15T10:23:42;102490.81;;;16.26;51.14
77263;BME280;66373;52.334;4.806;2023-02-15T10:26:16;102487.38;;;16.27;51.16
77263;BME280;66373;52.334;4.806;2023-02-15T10:28:49;102495.16;;;16.27;51.20
77263;BME280;66373;52.334;4.806;2023-02-15T10:31:23;102496.03;;;16.27;51.17
77263;BME280;66373;52.334;4.806;2023-02-15T10:33:59;102496.91;;;16.28;51.21
77263;BME280;66373;52.334;4.806;2023-02-15T10:36:32;102489.09;;;16.26;51.22
77263;BME280;66373;52.334;4.806;2023-02-15T10:39:07;102487.41;;;16.28;51.10
77263;BME280;66373;52.334;4.806;2023-02-15T10:41:37;102486.53;;;16.28;51.06
77263;BME280;66373;52.334;4.806;2023-02-15T10:44:21;102475.28;;;16.29;51.00
77263;BME280;66373;52.334;4.806;2023-02-15T10:47:18;102462.25;;;16.26;51.07
77263;BME280;66373;52.334;4.806;2023-02-15T10:50:09;102470.09;;;16.29;51.03
77263;BME280;66373;52.334;4.806;2023-02-15T10:52:48;102472.69;;;16.29;51.09
77263;BME280;66373;52.334;4.806;2023-02-15T10:55:29;102466.63;;;16.30;50.99
77263;BME280;66373;52.334;4.806;2023-02-15T10:58:08;102462.34;;;16.32;51.04
77263;BME280;66373;52.334;4.806;2023-02-15T11:00:44;102456.25;;;16.30;50.92
77263;BME280;66373;52.334;4.806;2023-02-15T11:03:24;102453.69;;;16.32;50.92
77263;BME280;66373;52.334;4.806;2023-02-15T11:06:02;102451.94;;;16.32;51.08
77263;BME280;66373;52.334;4.806;2023-02-15T11:08:34;102451.94;;;16.32;51.00
77263;BME280;66373;52.334;4.806;2023-02-15T11:11:04;102438.97;;;16.32;51.08
77263;BME280;66373;52.334;4.806;2023-02-15T11:13:36;102432.03;;;16.33;50.98
77263;BME280;66373;52.334;4.806;2023-02-15T11:16:10;102431.19;;;16.34;50.94
77263;BME280;66373;52.334;4.806;2023-02-15T11:18:43;102418.19;;;16.32;50.87
77263;BME280;66373;52.334;4.806;2023-02-15T11:21:17;102409.53;;;16.32;50.79
77263;BME280;66373;52.334;4.806;2023-02-15T11:23:47;102413.88;;;16.34;51.05
77263;BME280;66373;52.334;4.806;2023-02-15T11:26:16;102409.56;;;16.35;50.95
77263;BME280;66373;52.334;4.806;2023-02-15T11:28:49;102406.94;;;16.33;50.89
77263;BME280;66373;52.334;4.806;2023-02-15T11:31:22;102405.25;;;16.35;50.83
77263;BME280;66373;52.334;4.806;2023-02-15T11:33:52;102404.38;;;16.36;50.80
77263;BME280;66373;52.334;4.806;2023-02-15T11:36:25;102398.31;;;16.34;50.94
77263;BME280;66373;52.334;4.806;2023-02-15T11:38:56;102410.47;;;16.37;50.96
77263;BME280;66373;52.334;4.806;2023-02-15T11:41:28;102419.97;;;16.38;50.95
77263;BME280;66373;52.334;4.806;2023-02-15T11:43:59;102412.16;;;16.33;50.65
77263;BME280;66373;52.334;4.806;2023-02-15T11:46:31;102428.63;;;16.38;50.91
77263;BME280;66373;52.334;4.806;2023-02-15T11:48:58;102427.78;;;16.39;50.83
77263;BME280;66373;52.334;4.806;2023-02-15T11:51:25;102423.44;;;16.40;50.83
77263;BME280;66373;52.334;4.806;2023-02-15T11:53:54;102414.81;;;16.41;50.97
77263;BME280;66373;52.334;4.806;2023-02-15T11:56:23;102415.69;;;16.41;50.73
77263;BME280;66373;52.334;4.806;2023-02-15T11:58:54;102404.38;;;16.38;50.66
77263;BME280;66373;52.334;4.806;2023-02-15T12:01:27;102416.56;;;16.43;50.79
77263;BME280;66373;52.334;4.806;2023-02-15T12:03:59;102399.19;;;16.38;50.73
77263;BME280;66373;52.334;4.806;2023-02-15T12:06:30;102400.13;;;16.44;50.83
77263;BME280;66373;52.334;4.806;2023-02-15T12:09:04;102387.13;;;16.44;50.77
77263;BME280;66373;52.334;4.806;2023-02-15T12:11:35;102380.22;;;16.45;50.72
77263;BME280;66373;52.334;4.806;2023-02-15T12:14:07;102368.97;;;16.46;50.75
77263;BME280;66373;52.334;4.806;2023-02-15T12:16:41;102360.31;;;16.45;50.64
77263;BME280;66373;52.334;4.806;2023-02-15T12:19:27;102356.84;;;16.46;50.64
77263;BME280;66373;52.334;4.806;2023-02-15T12:21:56;102352.56;;;16.48;50.80
77263;BME280;66373;52.334;4.806;2023-02-15T12:24:26;102360.34;;;16.48;50.75
77263;BME280;66373;52.334;4.806;2023-02-15T12:27:00;102357.69;;;16.44;50.63
77263;BME280;66373;52.334;4.806;2023-02-15T12:29:30;102360.38;;;16.51;50.79
77263;BME280;66373;52.334;4.806;2023-02-15T12:31:57;102376.84;;;16.53;50.67
77263;BME280;66373;52.334;4.806;2023-02-15T12:34:29;102378.59;;;16.54;50.64
77263;BME280;66373;52.334;4.806;2023-02-15T12:37:01;102367.34;;;16.55;50.83
77263;BME280;66373;52.334;4.806;2023-02-15T12:39:34;102369.94;;;16.55;50.77
77263;BME280;66373;52.334;4.806;2023-02-15T12:42:04;102381.19;;;16.54;50.55
77263;BME280;66373;52.334;4.806;2023-02-15T12:44:32;102376.91;;;16.58;50.59
77263;BME280;66373;52.334;4.806;2023-02-15T12:47:01;102370.84;;;16.59;50.70
77263;BME280;66373;52.334;4.806;2023-02-15T12:49:31;102365.66;;;16.59;50.56
77263;BME280;66373;52.334;4.806;2023-02-15T12:51:59;102376.03;;;16.59;50.52
77263;BME280;66373;52.334;4.806;2023-02-15T12:54:32;102367.38;;;16.58;50.57
77263;BME280;66373;52.334;4.806;2023-02-15T12:57:14;102372.59;;;16.60;50.64
77263;BME280;66373;52.334;4.806;2023-02-15T12:59:48;102369.13;;;16.59;50.62
77263;BME280;66373;52.334;4.806;2023-02-15T13:02:23;102364.78;;;16.60;50.71
77263;BME280;66373;52.334;4.806;2023-02-15T13:04:54;102360.47;;;16.60;50.72
77263;BME280;66373;52.334;4.806;2023-02-15T13:07:24;102360.47;;;16.60;50.63
77263;BME280;66373;52.334;4.806;2023-02-15T13:09:51;102358.75;;;16.62;50.83
77263;BME280;66373;52.334;4.806;2023-02-15T13:12:21;102351.81;;;16.61;50.62
77263;BME280;66373;52.334;4.806;2023-02-15T13:14:51;102360.53;;;16.65;50.53
77263;BME280;66373;52.334;4.806;2023-02-15T13:17:23;102353.59;;;16.66;50.63